Time;durP1;ratioP1;P1;durP2;ratioP2;P2;SDS_P1;SDS_P2;PMS_P1;PMS_P2;Temp;Humidity;BMP_temperature;BMP_pressure;BME280_temperature;BME280_humidity;BME280_pressure;Samples;Min_cycle;Max_cycle;Signal;HPM_P1;HPM_P2
2021/12/02 00:00:48;;;;;;;22.77;7.57;;;;;;;5.16;86.93;99506.44;5052119;28;20053;-68
2021/12/02 00:03:15;;;;;;;20.08;7.40;;;;;;;5.20;86.79;99513.03;5052227;28;20128;-68
2021/12/02 00:05:42;;;;;;;20.27;7.00;;;;;;;5.25;86.27;99516.06;5049264;28;20048;-67
2021/12/02 00:08:10;;;;;;;17.98;6.82;;;;;;;5.23;86.70;99515.38;5052667;28;20052;-67
2021/12/02 00:10:37;;;;;;;26.00;7.63;;;;;;;5.24;86.52;99513.56;5051700;28;20048;-68
2021/12/02 00:13:03;;;;;;;19.08;7.05;;;;;;;5.22;86.25;99511.13;5049037;28;20041;-68
2021/12/02 00:21:05;;;;;;;21.90;7.78;;;;;;;5.12;87.16;99512.97;5051690;28;20532;-68
2021/12/02 00:23:38;;;;;;;17.63;7.18;;;;;;;5.19;87.25;99512.22;5052955;28;20049;-68
2021/12/02 00:26:12;;;;;;;19.30;8.18;;;;;;;5.10;87.29;99514.94;5085211;28;20055;-67
2021/12/02 00:28:39;;;;;;;21.60;8.43;;;;;;;5.15;87.33;99510.06;5053122;28;20362;-68
2021/12/02 00:31:14;;;;;;;22.00;8.57;;;;;;;5.14;87.21;99516.28;5050041;28;20044;-68
2021/12/02 00:33:45;;;;;;;16.77;8.07;;;;;;;5.18;87.31;99517.63;5051533;28;20072;-67
2021/12/02 00:36:13;;;;;;;19.73;7.93;;;;;;;5.16;87.69;99524.84;5052876;28;20378;-68
2021/12/02 00:38:46;;;;;;;23.95;8.90;;;;;;;5.23;87.46;99522.47;5052315;28;20041;-68
2021/12/02 00:41:16;;;;;;;19.40;8.45;;;;;;;5.11;87.87;99519.19;5067798;28;20092;-68
2021/12/02 00:43:44;;;;;;;22.77;9.05;;;;;;;5.22;87.79;99526.91;5084908;28;20490;-68
2021/12/02 00:46:14;;;;;;;16.42;8.23;;;;;;;5.10;88.03;99522.81;5052774;28;20190;-68
2021/12/02 00:48:42;;;;;;;20.23;9.50;;;;;;;5.08;88.77;99522.97;5052890;28;20387;-68
2021/12/02 00:51:10;;;;;;;25.05;10.07;;;;;;;5.18;87.95;99521.09;5052389;28;20094;-68
2021/12/02 00:53:43;;;;;;;20.80;9.45;;;;;;;5.17;88.34;99534.41;5051436;28;20147;-68
2021/12/02 00:56:16;;;;;;;22.92;9.02;;;;;;;5.08;87.97;99535.28;5051448;28;20041;-68
2021/12/02 00:58:47;;;;;;;25.15;9.57;;;;;;;5.20;88.31;99531.44;5052350;28;20049;-68
2021/12/02 01:01:16;;;;;;;25.20;9.45;;;;;;;5.10;88.07;99536.78;5052633;28;20557;-68
2021/12/02 01:03:43;;;;;;;21.45;9.07;;;;;;;5.18;87.56;99526.38;5050800;28;20044;-68
2021/12/02 01:06:10;;;;;;;23.65;9.10;;;;;;;5.16;88.50;99532.72;5051278;28;20044;-68
2021/12/02 01:08:39;;;;;;;19.30;9.73;;;;;;;5.10;88.68;99533.34;5051244;28;20092;-67
2021/12/02 01:11:09;;;;;;;29.95;10.05;;;;;;;5.02;87.83;99535.88;5051163;28;20124;-67
2021/12/02 01:13:36;;;;;;;26.60;9.43;;;;;;;5.18;87.88;99536.88;5084206;28;20045;-68
2021/12/02 01:16:03;;;;;;;20.75;9.35;;;;;;;5.23;87.10;99541.69;5052314;28;20041;-67
2021/12/02 01:18:30;;;;;;;31.45;9.68;;;;;;;5.14;87.46;99545.19;5052294;28;20051;-67
2021/12/02 01:20:58;;;;;;;21.65;8.65;;;;;;;5.07;88.00;99538.88;5052261;28;20041;-68
2021/12/02 01:23:29;;;;;;;29.58;8.82;;;;;;;5.12;87.92;99547.16;5052330;28;20052;-68
2021/12/02 01:26:00;;;;;;;21.83;8.90;;;;;;;5.08;87.63;99551.06;5052235;28;20071;-68
2021/12/02 01:28:29;;;;;;;25.45;9.05;;;;;;;5.04;87.23;99550.53;5052307;28;20625;-68
2021/12/02 01:30:56;;;;;;;25.17;8.98;;;;;;;5.08;87.22;99551.06;5052155;28;20532;-68
2021/12/02 01:33:25;;;;;;;21.98;9.18;;;;;;;5.00;87.15;99554.41;5050521;28;20052;-68
2021/12/02 01:35:56;;;;;;;25.05;8.52;;;;;;;5.10;86.81;99559.63;5034705;28;20098;-67
2021/12/02 01:38:24;;;;;;;24.73;8.45;;;;;;;5.08;87.51;99551.88;5052162;28;20059;-68
2021/12/02 01:40:52;;;;;;;18.73;7.65;;;;;;;4.98;87.27;99553.72;5052063;28;20808;-68
2021/12/02 01:43:21;;;;;;;26.67;8.23;;;;;;;4.98;87.25;99557.22;5050832;28;20056;-67
2021/12/02 01:45:48;;;;;;;19.00;7.75;;;;;;;4.96;87.00;99548.63;5054490;28;20504;-67
2021/12/02 01:48:25;;;;;;;23.98;9.13;;;;;;;5.01;87.29;99548.19;5056067;28;20103;-67
2021/12/02 01:51:02;;;;;;;20.92;7.65;;;;;;;5.08;86.91;99553.69;5056073;28;20128;-67
2021/12/02 01:53:33;;;;;;;26.15;7.88;;;;;;;5.05;86.65;99548.72;5055790;28;20124;-67
2021/12/02 01:56:15;;;;;;;17.65;7.63;;;;;;;4.98;86.88;99540.59;5055948;28;20412;-67
2021/12/02 01:58:46;;;;;;;18.88;7.35;;;;;;;4.91;87.71;99545.63;5038121;28;20049;-68
2021/12/02 02:01:23;;;;;;;16.27;7.28;;;;;;;4.96;86.69;99547.78;5055530;28;20512;-67
2021/12/02 02:03:52;;;;;;;22.38;7.63;;;;;;;5.02;87.23;99551.63;5054132;28;20708;-67
2021/12/02 02:06:29;;;;;;;22.55;7.50;;;;;;;5.11;87.10;99553.38;5055462;28;20094;-67
2021/12/02 02:08:58;;;;;;;22.52;7.00;;;;;;;5.02;86.07;99555.13;5055402;28;20045;-67
2021/12/02 02:11:27;;;;;;;21.23;6.78;;;;;;;5.00;85.70;99550.00;5055632;28;20044;-67
2021/12/02 02:13:55;;;;;;;21.75;6.32;;;;;;;5.12;86.15;99557.66;5052059;28;20045;-67
2021/12/02 02:16:23;;;;;;;18.50;6.75;;;;;;;5.14;85.66;99555.72;5055431;28;20041;-67
2021/12/02 02:18:50;;;;;;;25.52;8.77;;;;;;;5.15;84.57;99547.69;5055411;28;20072;-67
2021/12/02 02:21:20;;;;;;;31.33;11.45;;;;;;;5.21;84.13;99551.53;5055135;28;20108;-67
2021/12/02 02:23:51;;;;;;;31.05;12.63;;;;;;;5.09;84.57;99545.63;5055012;28;20045;-67
2021/12/02 02:26:35;;;;;;;33.38;18.70;;;;;;;4.92;85.08;99547.25;5054327;28;20490;-67
2021/12/02 02:29:07;;;;;;;31.10;19.58;;;;;;;5.00;84.58;99544.75;5054988;28;20048;-67
2021/12/02 02:31:37;;;;;;;29.88;18.85;;;;;;;5.00;83.94;99542.13;5037571;28;20043;-67
2021/12/02 02:34:04;;;;;;;38.63;20.27;;;;;;;5.13;84.30;99539.13;5054502;28;20060;-67
2021/12/02 02:36:34;;;;;;;36.20;20.33;;;;;;;5.04;84.83;99545.28;5055175;28;20101;-67
2021/12/02 02:39:03;;;;;;;35.80;21.40;;;;;;;5.00;84.94;99541.25;5053404;28;20045;-67
2021/12/02 02:41:35;;;;;;;39.20;20.45;;;;;;;4.97;84.07;99545.03;5054815;28;20036;-67
2021/12/02 02:44:03;;;;;;;25.42;16.38;;;;;;;4.97;83.92;99541.56;5087360;28;20116;-67
2021/12/02 02:46:33;;;;;;;30.33;17.48;;;;;;;5.00;83.82;99530.75;5054967;28;20036;-67
2021/12/02 02:49:02;;;;;;;25.63;15.75;;;;;;;4.97;84.79;99531.06;5055083;28;20037;-67
2021/12/02 02:51:31;;;;;;;27.90;13.35;;;;;;;4.95;84.67;99533.03;5054867;28;20044;-67
2021/12/02 02:54:04;;;;;;;25.13;14.15;;;;;;;4.96;83.00;99538.09;5053366;28;20049;-67
2021/12/02 02:56:33;;;;;;;22.45;14.65;;;;;;;4.98;83.36;99541.44;5034923;28;20041;-67
2021/12/02 02:59:39;;;;;;;23.95;16.25;;;;;;;4.98;83.55;99544.06;5053245;28;20057;-67
2021/12/02 03:04:47;;;;;;;24.40;12.60;;;;;;;4.95;83.25;99544.34;5052641;28;20135;-67
2021/12/02 03:07:29;;;;;;;18.27;8.90;;;;;;;4.89;83.52;99537.03;5054552;28;20072;-68
2021/12/02 03:10:04;;;;;;;17.17;6.55;;;;;;;4.76;84.14;99541.81;5054584;28;20505;-67
2021/12/02 03:12:42;;;;;;;17.85;5.00;;;;;;;4.86;84.47;99541.75;5049501;28;20038;-67
2021/12/02 03:17:47;;;;;;;17.33;4.88;;;;;;;4.79;83.95;99550.22;5131350;27;20173;-68
2021/12/02 03:20:14;;;;;;;20.17;6.25;;;;;;;4.77;83.07;99548.75;5110464;28;20446;-68
2021/12/02 03:22:41;;;;;;;12.73;3.28;;;;;;;4.72;82.14;99553.59;5092699;28;20043;-68
2021/12/02 03:25:09;;;;;;;9.65;2.97;;;;;;;4.69;83.52;99546.81;5092412;28;20043;-68
2021/12/02 03:27:36;;;;;;;12.15;2.42;;;;;;;4.75;83.45;99542.81;5083857;28;20101;-68
2021/12/02 03:30:06;;;;;;;11.45;2.63;;;;;;;4.88;81.88;99552.97;5072304;28;20408;-68
2021/12/02 03:32:35;;;;;;;11.05;2.60;;;;;;;4.81;81.38;99535.16;5097557;28;20456;-68
2021/12/02 03:35:02;;;;;;;11.45;2.72;;;;;;;4.87;82.03;99541.63;5088056;28;20040;-68
2021/12/02 03:37:29;;;;;;;16.83;3.00;;;;;;;4.83;81.52;99550.78;5090180;28;20044;-67
2021/12/02 03:39:56;;;;;;;10.82;4.15;;;;;;;4.70;81.91;99550.28;5089792;28;20059;-68
2021/12/02 03:42:23;;;;;;;18.95;9.50;;;;;;;4.85;81.83;99551.44;5083090;28;20134;-67
2021/12/02 03:44:50;;;;;;;22.70;12.82;;;;;;;4.75;82.60;99554.13;5090845;28;20051;-68
2021/12/02 03:47:16;;;;;;;25.50;13.80;;;;;;;4.73;82.77;99563.97;5090134;28;20032;-68
2021/12/02 03:49:43;;;;;;;27.67;14.20;;;;;;;4.83;82.91;99560.47;5071550;28;20044;-68
2021/12/02 03:52:10;;;;;;;25.25;14.32;;;;;;;4.76;82.88;99568.09;5089665;28;20036;-67
2021/12/02 03:54:37;;;;;;;29.50;15.98;;;;;;;4.62;84.31;99548.41;5079454;28;20119;-68
2021/12/02 03:57:03;;;;;;;20.38;9.20;;;;;;;4.65;83.41;99547.25;5110057;28;20040;-68
2021/12/02 03:59:32;;;;;;;15.57;8.25;;;;;;;4.79;83.10;99550.22;5091283;28;20043;-69
2021/12/02 04:02:00;;;;;;;23.98;7.35;;;;;;;4.79;82.37;99547.59;5081927;28;20047;-68
2021/12/02 04:04:42;;;;;;;15.25;5.38;;;;;;;4.78;82.68;99542.50;5087430;28;20059;-68
2021/12/02 04:07:10;;;;;;;11.95;3.53;;;;;;;4.63;83.31;99555.28;5085233;28;20482;-69
2021/12/02 04:09:42;;;;;;;13.95;3.28;;;;;;;4.57;82.05;99548.81;5088729;28;20044;-68
2021/12/02 04:12:34;;;;;;;13.20;3.30;;;;;;;4.59;82.58;99552.13;5089393;28;20047;-68
2021/12/02 04:15:02;;;;;;;12.15;3.20;;;;;;;4.61;82.87;99557.22;5061683;28;20445;-68
2021/12/02 04:17:40;;;;;;;14.60;3.58;;;;;;;4.59;83.15;99560.00;5070031;28;20072;-68
2021/12/02 04:20:16;;;;;;;13.60;2.55;;;;;;;4.53;83.60;99557.97;5050562;28;20090;-68
2021/12/02 04:22:44;;;;;;;12.57;2.47;;;;;;;4.53;82.91;99560.59;5068644;28;20048;-66
2021/12/02 04:25:12;;;;;;;16.90;2.80;;;;;;;4.58;82.75;99554.88;5050096;28;20041;-69
2021/12/02 04:27:39;;;;;;;13.07;2.38;;;;;;;4.63;83.01;99557.09;5063430;28;20052;-68
2021/12/02 04:30:10;;;;;;;15.70;2.15;;;;;;;4.63;81.68;99555.28;5020953;28;20489;-68
2021/12/02 04:32:37;;;;;;;13.55;2.20;;;;;;;4.73;81.16;99557.84;5057038;28;20040;-67
2021/12/02 04:35:05;;;;;;;15.93;2.30;;;;;;;4.70;82.26;99555.53;5074977;28;20100;-68
2021/12/02 04:37:32;;;;;;;11.60;2.65;;;;;;;4.74;81.54;99559.53;5053610;28;20460;-66
2021/12/02 04:39:59;;;;;;;10.15;2.88;;;;;;;4.81;80.60;99556.16;5054705;28;20095;-68
2021/12/02 04:42:26;;;;;;;11.45;2.60;;;;;;;4.75;80.73;99563.81;5037383;28;20420;-68
2021/12/02 04:44:52;;;;;;;12.20;2.58;;;;;;;4.67;80.63;99561.91;5037219;28;20041;-68
2021/12/02 04:47:19;;;;;;;9.23;3.47;;;;;;;4.53;81.37;99573.72;5037128;28;20037;-67
2021/12/02 04:49:46;;;;;;;14.48;3.83;;;;;;;4.54;82.26;99564.03;5021298;28;20048;-67
2021/12/02 04:52:14;;;;;;;17.02;5.53;;;;;;;4.40;82.02;99571.41;5054647;28;20179;-67
2021/12/02 04:54:40;;;;;;;15.27;3.80;;;;;;;4.25;83.72;99577.25;5054923;28;20098;-67
2021/12/02 04:57:07;;;;;;;11.65;2.42;;;;;;;4.18;82.04;99574.34;5054817;28;20037;-68
2021/12/02 04:59:34;;;;;;;3.47;1.58;;;;;;;4.07;82.53;99582.38;5054803;28;20508;-67
2021/12/02 05:02:01;;;;;;;5.32;1.58;;;;;;;4.02;83.02;99580.16;5049651;28;20067;-68
2021/12/02 05:04:27;;;;;;;5.25;1.50;;;;;;;4.17;83.47;99573.53;5039286;28;20064;-68
2021/12/02 05:06:54;;;;;;;4.20;1.60;;;;;;;4.14;82.81;99584.31;5074694;28;20044;-68
2021/12/02 05:09:21;;;;;;;4.53;1.50;;;;;;;4.08;83.48;99577.00;5049888;28;20055;-69
2021/12/02 05:11:48;;;;;;;5.95;1.80;;;;;;;4.25;82.23;99580.69;5074831;28;20059;-69
2021/12/02 05:14:14;;;;;;;6.47;2.13;;;;;;;4.12;82.41;99582.81;5074827;28;20045;-69
2021/12/02 05:16:41;;;;;;;7.25;2.17;;;;;;;4.24;82.77;99581.69;5060657;28;20045;-66
2021/12/02 05:19:08;;;;;;;6.22;2.20;;;;;;;4.14;82.26;99581.69;5054542;28;20495;-66
2021/12/02 05:21:35;;;;;;;9.10;2.20;;;;;;;4.17;82.59;99580.59;5054467;28;20052;-66
2021/12/02 05:24:02;;;;;;;9.52;2.80;;;;;;;4.42;82.12;99572.09;5054104;28;20103;-67
2021/12/02 05:26:28;;;;;;;7.82;2.83;;;;;;;4.32;82.15;99581.78;5054518;28;20041;-67
2021/12/02 05:28:55;;;;;;;10.00;3.17;;;;;;;4.20;82.43;99573.25;5054195;28;20045;-67
2021/12/02 05:31:23;;;;;;;14.43;3.35;;;;;;;4.29;82.54;99568.09;5017903;28;20068;-67
2021/12/02 05:33:50;;;;;;;15.02;4.00;;;;;;;4.35;83.34;99570.19;5054453;28;20098;-67
2021/12/02 05:36:17;;;;;;;13.07;4.28;;;;;;;4.26;82.54;99557.88;5054515;28;20048;-67
2021/12/02 05:38:44;;;;;;;15.85;4.80;;;;;;;4.39;82.83;99564.50;5019283;28;20055;-67
2021/12/02 05:41:14;;;;;;;20.48;5.10;;;;;;;4.32;82.66;99570.47;5054540;28;20048;-66
2021/12/02 05:43:41;;;;;;;19.40;5.25;;;;;;;4.36;82.73;99570.03;5037528;28;20045;-66
2021/12/02 05:46:08;;;;;;;19.60;5.00;;;;;;;4.31;83.10;99566.16;5053863;28;20048;-67
2021/12/02 05:48:35;;;;;;;14.40;5.00;;;;;;;4.21;83.97;99563.56;5063672;28;20033;-67
2021/12/02 05:51:02;;;;;;;15.55;4.80;;;;;;;4.55;82.24;99568.31;5074035;28;20048;-68
2021/12/02 05:53:28;;;;;;;17.30;4.63;;;;;;;4.68;82.14;99568.00;5039528;28;20044;-67
2021/12/02 05:55:55;;;;;;;16.02;4.95;;;;;;;4.50;81.73;99565.31;5056029;28;20505;-67
2021/12/02 05:58:22;;;;;;;22.50;6.40;;;;;;;4.43;82.36;99562.41;5073702;28;20037;-67
2021/12/02 06:00:49;;;;;;;15.80;6.07;;;;;;;4.51;81.97;99572.19;5072812;28;20051;-67
2021/12/02 06:03:16;;;;;;;19.05;6.60;;;;;;;4.38;82.29;99585.63;5055530;28;20060;-67
2021/12/02 06:05:45;;;;;;;17.80;6.43;;;;;;;4.33;82.27;99580.81;5060718;28;20072;-67
2021/12/02 06:08:13;;;;;;;21.20;6.00;;;;;;;4.25;82.81;99590.38;5036293;28;20044;-67
2021/12/02 06:10:40;;;;;;;18.33;5.75;;;;;;;4.26;83.07;99594.63;5053324;28;20461;-67
2021/12/02 06:13:07;;;;;;;24.80;6.13;;;;;;;4.19;83.00;99595.22;5053518;28;20045;-67
2021/12/02 06:15:34;;;;;;;21.67;6.75;;;;;;;4.18;83.01;99595.34;5041603;28;20099;-68
2021/12/02 06:18:01;;;;;;;18.70;6.32;;;;;;;4.18;82.98;99601.44;5055573;28;20044;-68
2021/12/02 06:20:27;;;;;;;20.63;5.85;;;;;;;4.24;83.04;99602.69;5054483;28;20047;-68
2021/12/02 06:22:54;;;;;;;17.63;5.60;;;;;;;4.21;82.27;99606.41;5039051;28;20500;-67
2021/12/02 06:27:59;;;;;;;20.73;9.27;;;;;;;4.00;83.18;99610.97;5131549;27;20500;-68
2021/12/02 06:30:26;;;;;;;27.88;12.32;;;;;;;3.98;83.15;99607.66;5129843;27;20130;-68
2021/12/02 06:32:53;;;;;;;25.75;12.68;;;;;;;3.85;83.31;99621.88;5129581;28;20047;-68
2021/12/02 06:35:21;;;;;;;26.08;12.23;;;;;;;3.87;83.32;99619.13;5128046;28;20043;-68
2021/12/02 06:37:49;;;;;;;24.13;12.18;;;;;;;3.81;84.04;99632.81;5128217;27;20054;-68
2021/12/02 06:40:16;;;;;;;24.65;10.80;;;;;;;3.89;83.49;99627.69;5112424;28;20043;-68
2021/12/02 06:42:44;;;;;;;27.30;11.18;;;;;;;3.85;83.17;99629.75;5129574;28;20515;-68
2021/12/02 06:45:12;;;;;;;24.65;11.35;;;;;;;3.83;83.07;99630.88;5112396;28;20047;-67
2021/12/02 06:47:41;;;;;;;27.60;12.05;;;;;;;3.86;83.16;99641.09;5091973;28;20127;-68
2021/12/02 06:50:16;;;;;;;18.55;8.95;;;;;;;3.83;83.17;99630.88;5110101;28;20044;-68
2021/12/02 06:52:44;;;;;;;18.95;6.30;;;;;;;3.82;82.41;99637.06;5109928;28;20066;-68
2021/12/02 06:55:12;;;;;;;17.00;5.70;;;;;;;3.79;83.29;99640.81;5114607;28;20487;-69
2021/12/02 06:57:39;;;;;;;14.40;5.30;;;;;;;3.87;82.94;99641.94;5130186;27;20407;-68
2021/12/02 07:00:10;;;;;;;18.60;5.38;;;;;;;3.79;82.74;99643.44;5129934;27;20043;-68
2021/12/02 07:02:38;;;;;;;11.55;3.70;;;;;;;3.98;82.39;99645.25;5128904;28;20036;-67
2021/12/02 07:05:07;;;;;;;19.27;4.20;;;;;;;3.91;83.07;99649.41;5128649;27;20051;-67
2021/12/02 07:07:36;;;;;;;16.77;3.97;;;;;;;3.88;82.87;99647.03;5128794;27;20484;-67
2021/12/02 07:10:07;;;;;;;14.15;3.75;;;;;;;3.93;83.26;99644.84;5130137;27;20044;-67
2021/12/02 07:12:36;;;;;;;16.95;3.35;;;;;;;3.93;83.23;99655.34;5129012;27;20054;-67
2021/12/02 07:15:11;;;;;;;15.57;4.00;;;;;;;3.99;83.01;99652.16;5116371;28;20514;-67
2021/12/02 07:17:38;;;;;;;12.23;3.75;;;;;;;3.97;83.18;99658.50;5129850;27;20039;-67
2021/12/02 07:20:06;;;;;;;11.82;3.70;;;;;;;4.00;82.70;99660.84;5130238;27;20047;-68
2021/12/02 07:22:33;;;;;;;13.52;3.60;;;;;;;4.05;82.64;99671.75;5128434;28;20040;-67
2021/12/02 07:25:00;;;;;;;10.95;3.35;;;;;;;3.94;83.02;99669.28;5129604;27;20052;-67
2021/12/02 07:27:26;;;;;;;12.10;3.60;;;;;;;3.96;83.57;99683.09;5129533;27;20586;-67
2021/12/02 07:29:53;;;;;;;10.85;3.08;;;;;;;3.97;82.75;99674.25;5129993;27;20094;-67
2021/12/02 07:32:24;;;;;;;13.40;3.78;;;;;;;3.95;82.11;99684.06;5112351;28;20040;-67
2021/12/02 07:34:53;;;;;;;13.40;3.58;;;;;;;3.88;82.81;99681.16;5127232;28;20035;-67
2021/12/02 07:37:20;;;;;;;13.32;4.25;;;;;;;3.86;83.54;99685.72;5109677;28;20043;-67
2021/12/02 07:39:48;;;;;;;11.82;3.85;;;;;;;3.82;83.38;99686.94;5115660;28;20066;-67
2021/12/02 07:42:24;;;;;;;10.52;3.53;;;;;;;3.86;82.46;99685.72;5099210;27;20036;-67
2021/12/02 07:44:51;;;;;;;11.00;3.60;;;;;;;3.98;81.62;99696.91;5115899;27;20093;-67
2021/12/02 07:47:19;;;;;;;13.27;3.42;;;;;;;3.98;82.88;99702.13;5114534;28;20036;-67
2021/12/02 07:49:48;;;;;;;10.77;3.92;;;;;;;3.94;82.38;99701.59;5098001;28;20589;-67
2021/12/02 07:52:20;;;;;;;10.55;3.40;;;;;;;3.89;82.73;99695.09;5115962;28;20491;-67
2021/12/02 07:54:50;;;;;;;13.55;4.03;;;;;;;3.78;82.79;99711.78;5115884;28;20039;-67
2021/12/02 07:57:18;;;;;;;16.35;4.13;;;;;;;3.78;83.80;99701.28;5116100;28;20515;-66
2021/12/02 07:59:48;;;;;;;12.68;3.55;;;;;;;3.88;82.89;99710.00;5121173;27;20071;-67
2021/12/02 08:02:16;;;;;;;9.32;3.30;;;;;;;3.80;83.23;99720.34;5130945;27;20053;-67
2021/12/02 08:04:43;;;;;;;10.10;3.20;;;;;;;3.82;83.42;99719.25;5110613;27;20135;-67
2021/12/02 08:07:10;;;;;;;10.30;3.55;;;;;;;3.79;82.85;99719.53;5111071;27;20032;-67
2021/12/02 08:09:37;;;;;;;18.48;4.00;;;;;;;3.88;83.10;99727.56;5101215;27;20036;-68
2021/12/02 08:12:05;;;;;;;14.60;3.92;;;;;;;4.08;81.91;99731.03;5107252;27;20118;-67
2021/12/02 08:14:31;;;;;;;9.70;3.47;;;;;;;3.87;82.31;99725.88;5093100;27;20035;-67
2021/12/02 08:16:58;;;;;;;10.25;3.33;;;;;;;3.85;82.42;99724.22;5122943;27;20036;-67
2021/12/02 08:19:25;;;;;;;7.65;3.13;;;;;;;3.79;82.58;99735.25;5107089;27;20040;-68
2021/12/02 08:21:52;;;;;;;9.25;3.42;;;;;;;3.80;82.10;99747.44;5114280;27;20434;-68
2021/12/02 08:24:22;;;;;;;10.27;3.20;;;;;;;3.83;83.07;99749.75;5113762;27;20057;-67
2021/12/02 08:26:49;;;;;;;7.57;3.30;;;;;;;3.95;81.65;99753.13;5085340;27;20051;-68
2021/12/02 08:29:16;;;;;;;16.52;3.40;;;;;;;3.85;82.27;99749.63;5101533;28;20039;-67
2021/12/02 08:31:44;;;;;;;12.50;3.40;;;;;;;4.05;80.71;99758.38;5106753;27;20093;-67
2021/12/02 08:34:11;;;;;;;9.07;3.38;;;;;;;4.06;82.27;99757.41;5104300;28;20043;-67
2021/12/02 08:36:44;;;;;;;15.52;4.28;;;;;;;3.93;82.30;99756.81;5107369;27;20043;-67
2021/12/02 08:39:16;;;;;;;15.35;4.03;;;;;;;4.09;81.46;99756.31;5094275;28;20048;-67
2021/12/02 08:41:48;;;;;;;17.80;4.20;;;;;;;3.96;81.95;99757.38;5096961;28;20058;-68
2021/12/02 08:44:17;;;;;;;12.02;4.20;;;;;;;3.94;80.71;99766.38;5108786;28;20378;-67
2021/12/02 08:46:46;;;;;;;9.45;3.45;;;;;;;3.88;81.83;99774.78;5110652;27;20043;-68
2021/12/02 08:49:14;;;;;;;11.43;3.70;;;;;;;3.77;82.96;99787.03;5114947;27;20039;-68
2021/12/02 08:51:41;;;;;;;9.45;3.53;;;;;;;3.82;81.30;99790.09;5106542;27;20048;-68
2021/12/02 08:54:08;;;;;;;11.77;4.13;;;;;;;3.88;81.30;99790.53;5107455;27;20128;-68
2021/12/02 08:56:35;;;;;;;9.75;4.50;;;;;;;3.79;81.51;99790.34;5103818;27;20032;-68
2021/12/02 08:59:03;;;;;;;20.83;4.72;;;;;;;3.81;82.35;99801.53;5083699;27;20043;-68
2021/12/02 09:01:30;;;;;;;10.10;3.17;;;;;;;3.93;80.27;99790.94;5111956;27;20089;-67
2021/12/02 09:03:57;;;;;;;9.52;3.30;;;;;;;3.80;80.24;99794.66;5108820;27;20462;-67
2021/12/02 09:06:24;;;;;;;11.13;2.70;;;;;;;3.71;80.68;99797.22;5096782;27;20507;-67
2021/12/02 09:08:54;;;;;;;8.25;2.78;;;;;;;3.79;80.75;99803.47;5114282;27;20740;-68
2021/12/02 09:11:21;;;;;;;8.38;3.15;;;;;;;3.76;81.34;99814.22;5106634;27;20122;-68
2021/12/02 09:13:48;;;;;;;7.43;3.05;;;;;;;3.79;81.26;99821.03;5103413;27;20389;-68
2021/12/02 09:16:15;;;;;;;9.20;3.22;;;;;;;3.88;80.92;99825.47;5091284;27;20479;-67
2021/12/02 09:18:42;;;;;;;8.70;2.70;;;;;;;3.92;80.72;99826.84;5108820;27;20459;-68
2021/12/02 09:21:09;;;;;;;8.57;3.00;;;;;;;4.00;79.01;99816.53;5103929;27;20066;-68
2021/12/02 09:23:35;;;;;;;12.18;3.22;;;;;;;3.89;80.40;99829.72;5092475;28;20096;-68
2021/12/02 09:26:02;;;;;;;31.15;3.92;;;;;;;3.99;79.83;99825.34;5108577;27;20131;-66
2021/12/02 09:28:29;;;;;;;12.80;2.97;;;;;;;4.15;80.29;99834.53;5118791;27;20044;-66
2021/12/02 09:30:56;;;;;;;10.88;4.60;;;;;;;4.08;79.04;99833.41;5085010;28;20040;-66
2021/12/02 09:33:23;;;;;;;12.90;4.40;;;;;;;3.85;78.58;99834.41;5097846;28;20044;-66
2021/12/02 09:35:50;;;;;;;11.15;4.88;;;;;;;3.87;79.77;99836.09;5113242;27;20054;-66
2021/12/02 09:38:17;;;;;;;11.10;4.53;;;;;;;4.01;79.99;99840.97;5104140;28;20093;-66
2021/12/02 09:40:44;;;;;;;9.30;3.78;;;;;;;4.11;78.15;99838.38;5104155;27;20104;-66
2021/12/02 09:43:14;;;;;;;12.55;4.60;;;;;;;3.94;79.44;99827.53;5090834;28;20488;-66
2021/12/02 09:45:42;;;;;;;9.98;4.10;;;;;;;4.04;78.80;99843.34;5107945;27;20504;-66
2021/12/02 09:48:10;;;;;;;13.57;4.97;;;;;;;4.14;78.60;99841.56;5129547;27;20027;-66
2021/12/02 09:50:49;;;;;;;14.07;4.68;;;;;;;4.03;79.32;99845.09;5114683;27;20071;-67
2021/12/02 09:53:20;;;;;;;12.02;4.53;;;;;;;4.18;80.12;99850.00;5104370;27;20040;-67
2021/12/02 09:55:54;;;;;;;14.03;6.50;;;;;;;4.29;77.92;99855.13;5111200;27;20067;-67
2021/12/02 09:58:24;;;;;;;22.20;6.28;;;;;;;4.31;79.33;99850.59;5102460;27;20032;-67
2021/12/02 10:01:07;;;;;;;14.48;7.20;;;;;;;4.25;79.57;99852.91;5092820;28;20051;-66
2021/12/02 10:03:38;;;;;;;10.52;5.38;;;;;;;4.36;79.16;99856.25;5094599;27;20040;-66
2021/12/02 10:06:09;;;;;;;12.75;5.05;;;;;;;4.48;78.41;99846.47;5108157;28;20044;-66
2021/12/02 10:09:05;;;;;;;16.55;5.18;;;;;;;4.52;78.04;99847.84;5099207;27;20077;-66
2021/12/02 10:11:49;;;;;;;14.82;4.55;;;;;;;4.50;77.43;99856.84;5104508;27;20043;-66
2021/12/02 10:14:29;;;;;;;19.48;5.15;;;;;;;4.63;76.99;99856.56;5119702;27;20092;-66
2021/12/02 10:17:21;;;;;;;11.25;4.18;;;;;;;4.67;76.56;99861.41;5114467;28;20040;-66
2021/12/02 10:23:17;;;;;;;11.02;4.20;;;;;;;4.24;76.97;99870.47;5107336;28;20056;-66
2021/12/02 10:26:04;;;;;;;13.00;4.32;;;;;;;4.01;79.10;99862.78;5112312;28;20067;-66
2021/12/02 10:28:36;;;;;;;11.93;3.88;;;;;;;4.19;79.22;99849.03;5106276;28;20063;-66
2021/12/02 10:31:05;;;;;;;9.48;3.35;;;;;;;4.29;76.86;99859.53;5127692;27;20043;-67
2021/12/02 10:36:36;;;;;;;13.25;3.85;;;;;;;4.72;75.73;99869.69;5099570;27;20382;-65
2021/12/02 10:39:19;;;;;;;13.40;4.25;;;;;;;4.67;76.89;99866.66;5088551;28;20144;-65
2021/12/02 10:41:59;;;;;;;8.30;3.40;;;;;;;4.43;76.24;99859.97;5083996;28;20068;-65
2021/12/02 10:44:31;;;;;;;8.02;3.10;;;;;;;4.54;75.97;99872.16;5065698;28;20263;-65
2021/12/02 10:47:03;;;;;;;8.65;3.55;;;;;;;5.23;74.46;99870.38;5091593;28;20048;-65
2021/12/02 10:49:39;;;;;;;10.52;3.40;;;;;;;5.10;73.44;99861.94;5086171;28;20033;-66
2021/12/02 10:52:09;;;;;;;9.95;3.17;;;;;;;5.30;73.41;99874.09;5087004;28;20048;-65
2021/12/02 10:54:40;;;;;;;8.68;3.15;;;;;;;5.12;73.17;99862.63;5084536;28;20040;-66
2021/12/02 10:57:10;;;;;;;10.27;2.83;;;;;;;4.99;73.65;99869.00;5084005;28;20489;-65
2021/12/02 11:02:21;;;;;;;13.48;3.30;;;;;;;4.74;75.36;99872.19;5118760;27;20146;-67
2021/12/02 11:05:00;;;;;;;11.73;3.10;;;;;;;4.70;74.58;99871.63;5106294;28;20047;-67
2021/12/02 11:07:31;;;;;;;10.18;3.03;;;;;;;4.61;75.25;99872.47;5105527;28;20479;-67
2021/12/02 11:10:01;;;;;;;12.80;3.28;;;;;;;4.45;74.86;99870.34;5107599;28;20527;-67
2021/12/02 11:12:30;;;;;;;8.20;2.72;;;;;;;4.65;74.74;99870.41;5106506;28;20039;-65
2021/12/02 11:15:09;;;;;;;11.10;3.35;;;;;;;4.49;75.29;99865.66;5108545;28;20047;-67
2021/12/02 11:17:47;;;;;;;13.02;3.72;;;;;;;4.50;75.21;99872.59;5107108;28;20047;-67
2021/12/02 11:20:22;;;;;;;10.30;2.50;;;;;;;4.50;75.46;99862.91;5107969;28;20050;-65
2021/12/02 11:22:55;;;;;;;8.98;2.47;;;;;;;4.56;75.03;99862.34;5105854;28;20116;-66
2021/12/02 11:25:22;;;;;;;11.95;2.35;;;;;;;4.84;73.27;99861.69;5107157;28;20043;-65
2021/12/02 11:27:51;;;;;;;7.85;2.08;;;;;;;4.55;74.11;99870.41;5107204;28;20040;-65
2021/12/02 11:33:00;;;;;;;12.05;2.60;;;;;;;4.72;75.07;99867.06;5098006;27;20395;-67
2021/12/02 11:35:32;;;;;;;15.02;2.75;;;;;;;4.90;74.66;99874.28;5107683;28;20132;-67
2021/12/02 11:38:22;;;;;;;9.63;2.70;;;;;;;4.86;74.50;99876.34;5105579;28;20035;-66
2021/12/02 11:40:52;;;;;;;11.00;2.97;;;;;;;4.84;74.04;99877.44;5119516;27;20048;-66
2021/12/02 11:43:23;;;;;;;8.00;2.85;;;;;;;4.76;73.68;99875.50;5103976;28;20456;-66
2021/12/02 11:45:52;;;;;;;11.88;2.65;;;;;;;5.00;74.20;99875.09;5105809;28;20527;-67
2021/12/02 11:48:22;;;;;;;9.55;2.88;;;;;;;4.97;73.16;99885.91;5106483;28;20047;-66
2021/12/02 11:50:53;;;;;;;8.82;2.60;;;;;;;4.72;73.53;99887.28;5107210;28;20056;-66
2021/12/02 11:53:21;;;;;;;10.20;2.60;;;;;;;4.80;74.09;99890.88;5104962;28;20036;-66
2021/12/02 11:55:53;;;;;;;8.57;3.50;;;;;;;4.87;73.60;99890.31;5107443;28;20573;-66
2021/12/02 11:58:21;;;;;;;12.13;3.50;;;;;;;4.79;74.31;99896.28;5108745;28;20055;-66
2021/12/02 12:00:49;;;;;;;8.80;3.40;;;;;;;5.08;74.84;99887.56;5106419;28;20670;-67
2021/12/02 12:03:40;;;;;;;9.20;3.67;;;;;;;5.11;73.34;99900.41;5090337;28;20044;-67
2021/12/02 12:06:13;;;;;;;11.73;3.83;;;;;;;4.61;72.76;99891.66;5105106;28;20047;-66
2021/12/02 12:08:45;;;;;;;9.38;4.03;;;;;;;4.55;74.33;99891.41;5105685;28;20040;-66
2021/12/02 12:14:02;;;;;;;13.13;3.72;;;;;;;4.52;75.67;99895.13;5107776;27;20423;-66